Pagrindinis puslapis
METAR-TAF:

METAR-TAF

Oro uostai :

Arišas, Egiptas

platuma: 31-05N, ilguma: 033-49E, Aukštis: 31 m

Dabartinis oras

Ataskaita buvo paskelbta 1 valandą ir 18 minutes, ne 06:00 UTC
Vėjas 6 kt iš Vakarų
Temperatūra 35°C
Drėgmė 13%
Slėgis 1013 hPa
Matomumas 10 km arba daugiau
nėra debesų žemiau 1500 m ir nėra kamuolinių lietaus debesų

METAR: HEAR 240600Z 27006KT CAVOK 35/02 Q1013 NOSIG

Laikas: 09:18 (07:18 UTC)

Prognozė

Ataskaita buvo paskelbta 2 valandos ir 18 minutes, ne 05:00 UTC
Prognozė galioja nuo 24 metu 06 UTC su 25 metu 12 UTC
Vėjas 12 kt iš Šiaurės Vakarų
Matomumas 10 km arba daugiau
Išsisklaidę debesys ne aukštis 2500 ft

TAF: HEAR 240500Z 2406/2512 32012KT 9999 SCT025

Orai ataskaitas ir orų prognozės (METAR, TAF).

turimą stotys yra geltonos ir raudonos taškus žemėlapyje.

Perkelti pele per norėdami pamatyti stoties vardą.

Tada spustelėkite, norėdami matyti oro stebėjimo ir prognozės.

Norėdami pakeisti žemėlapį: spustelėkite ant žalios mygtukų su juodo kryžiaus žemyn,; žalią mygtuką su brūkšneliu, jei norite nutolinti; arba žalių rodyklių gretimoms žemėlapius.


METAR-TAF: